Surface/Precipitation History
02/08/2018 19:40  to  2/9/2018 19:40
Change End Date:
To complete the export process:
1) Select all of the data below
2) Copy the data to the clipboard
3) Open a word processor such as Notepad
4) Paste the data into the word processor
5) Save the file

Date/Time (MDT), SfStatus, SfTemp, PvtTemp, SubTemp, FreezeTemp, ChemFactor, ChemPercent, WaterDepth, WaterDepthIceThickness, IcePercent, Conductivity, Salinity, FrictionIndex, PrecipType, PrecipIntensity, Accumulation, PrecipRate
02/09/2018 19:40, Ice Warning, 26.8, , 33, 32, 5, 0, , , 100, 0, 9, , None, None, ,  
02/09/2018 19:31, Ice Warning, 26.6, , 33, 32, 5, 0, , , 100, 0, 10, , None, None, ,  
02/09/2018 19:29, Ice Warning, 26.6, , 33, 32, 5, 0, , , 100, 0, 10, , None, None, ,  
02/09/2018 19:19, Ice Warning, 26.8, , 33, 32, 5, 0, , , 100, 0, 14, , None, None, ,  
02/09/2018 19:16, Ice Warning, 26.6, , 33, 32, 5, 0, , , 100, 0, 11, , None, None, ,  
02/09/2018 19:09, Ice Warning, 26.8, , 33, 32, 5, 0, , , 100, 0, 13, , None, None, ,  
02/09/2018 19:01, Ice Warning, 26.8, , 33, 32, 5, 0, , , 100, 0, 11, , None, None, ,  
02/09/2018 18:59, Ice Warning, 26.6, , 33, 32, 5, 0, , , 100, 0, 11, , None, None, ,  
02/09/2018 18:49, Ice Warning, 26.8, , 33, 32, 5, 0, , , 100, 0, 12, , None, None, ,  
02/09/2018 18:46, Ice Warning, 26.8, , 33, 32, 5, 0, , , 100, 0, 11, , None, None, ,  
02/09/2018 18:39, Ice Warning, 27, , 33, 32, 5, 0, , , 100, 0, 17, , None, None, ,  
02/09/2018 18:31, Ice Warning, 27.1, , 33, 32, 5, 0, , , 100, 0, 16, , None, None, ,  
02/09/2018 18:29, Ice Warning, 26.8, , 33, 32, 5, 0, , , 100, 0, 16, , None, None, ,  
02/09/2018 18:19, Ice Warning, 26.8, , 33, 32, 5, 0, , , 100, 0, 17, , None, None, ,  
02/09/2018 18:16, Ice Warning, 27, , 33, 32, 5, 0, , , 100, 0, 17, , None, None, ,  
02/09/2018 18:09, Ice Warning, 27.1, , 33, 32, 5, 0, , , 100, 0, 19, , None, None, ,  
02/09/2018 18:01, Ice Warning, 27.1, , 33, 32, 5, 0, , , 100, 0, 22, , None, None, ,  
02/09/2018 17:59, Ice Warning, 27, , 33, 32, 5, 0, , , 100, 0, 22, , None, None, ,  
02/09/2018 17:49, Ice Warning, 27.1, , 33, 32, 5, 0, , , 100, 0, 22, , None, None, ,  
02/09/2018 17:46, Ice Warning, 27.3, , 33, 32, 5, 0, , , 100, 0, 22, , None, None, ,  
02/09/2018 17:39, Ice Warning, 27.3, , 33, 32, 15, 0, , , 99, 0, 25, , None, None, ,  
02/09/2018 17:31, Ice Warning, 28, , 33, 32, 45, 0, , , 99, 0, 26, , None, None, ,  
02/09/2018 17:29, Ice Warning, 28, , 33, 32, 70, 0, , , 99, 0, 28, , None, None, ,  
02/09/2018 17:19, Ice Warning, 28.4, , 33, 32, 10, 0, , , 99, 0, 19, , None, None, ,  
02/09/2018 17:16, Ice Warning, 28.4, , 33, 32, 5, 0, , , 99, 0, 19, , None, None, ,  
02/09/2018 17:09, Ice Warning, 27.9, , 33, 32, 10, 0, , , 100, 0, 18, , None, None, ,  
02/09/2018 17:01, Ice Warning, 27.5, , 33, 32, 25, 0, , , 99, 0, 24, , None, None, ,  
02/09/2018 16:59, Ice Warning, 27.7, , 33, 32, 25, 0, , , 99, 0, 25, , None, None, ,  
02/09/2018 16:49, Ice Warning, 27.9, , 33, 32, 30, 0, , , 99, 0, 31, , None, None, ,  
02/09/2018 16:46, Ice Warning, 28, , 33, 32, 30, 0, , , 99, 0, 32, , None, None, ,  
02/09/2018 16:39, Ice Warning, 28, , 33, 32, 40, 0, , , 99, 0, 42, , None, None, ,  
02/09/2018 16:31, Ice Warning, 28.2, , 33, 32, 35, 0, , , 99, 0, 53, , None, None, ,  
02/09/2018 16:28, Ice Warning, 28.8, , 33, 32, 30, 0, , , 98, 0, 55, , None, None, ,  
02/09/2018 16:18, Ice Warning, 29.3, , 33, 32, 45, 0, , , 95, 1, 128, , None, None, ,  
02/09/2018 16:16, Ice Warning, 29.5, , 33, 32, 40, 1, , , 94, 1, 152, , None, None, ,  
02/09/2018 16:08, Ice Warning, 30.2, , 33, 32, 55, 1, , , 89, 2, 194, , None, None, ,  
02/09/2018 16:01, Ice Warning, 30.7, , 33, 32, 80, 1, , , 87, 1, 161, , None, None, ,  
02/09/2018 15:58, Chemically Wet, 31.3, , 33, 32, 55, 1, , , 80, 1, 150, , None, None, ,  
02/09/2018 15:48, Chemically Wet, 31.3, , 33, 32, 40, 1, , , 67, 2, 250, , None, None, ,  
02/09/2018 15:46, Wet, 32.2, , 33, 32, 45, 1, 0, , 0, 3, 271, , None, None, ,  
02/09/2018 15:38, Wet, 32.4, , 33, 32, 50, 1, 0, , 0, 3, 317, , None, None, ,  
02/09/2018 15:31, Chemically Wet, 31.8, , 33, 32, 95, 1, 0, , 0, 3, 287, , None, None, ,  
02/09/2018 15:28, Chemically Wet, 31.6, , 33, 32, 55, 1, 0, , 0, 3, 372, , None, None, ,  
02/09/2018 15:18, Chemically Wet, 31.8, , 33, 32, 95, 1, 0, , 0, 3, 300, , None, None, ,  
02/09/2018 15:16, Chemically Wet, 31.8, , 34, 32, 95, 1, 0, , 0, 3, 323, , None, None, ,  
02/09/2018 15:08, Wet, 32.4, , 34, 31, 95, 2, 0, , 0, 4, 429, , None, None, ,  
02/09/2018 15:01, Chemically Wet, 31.8, , 33, 31, 95, 2, 0, , 0, 5, 571, , None, None, ,  
02/09/2018 14:58, Wet, 32.7, , 34, 32, 90, 1, 0, , 0, 3, 336, , None, None, ,  
02/09/2018 14:48, Wet, 32.9, , 33, 32, 60, 1, 0, , 0, 1, 144, , None, None, ,  
02/09/2018 14:46, Wet, 32.9, , 34, 32, 95, 2, 0, , 0, 4, 397, , None, None, ,  
02/09/2018 14:38, Wet, 33.6, , 34, 32, 90, 1, 0, , 0, 3, 332, , None, None, ,  
02/09/2018 14:31, Wet, 33.4, , 33, 32, 95, 1, 0, , 0, 3, 316, , None, None, ,  
02/09/2018 14:28, Wet, 33.4, , 34, 32, 50, 1, 0, , 0, 3, 284, , None, None, ,  
02/09/2018 14:18, Wet, 32.4, , 33, 32, 95, 1, 0, , 0, 3, 274, , None, None, ,  
02/09/2018 14:16, Wet, 32.5, , 34, 32, 95, 1, 0, , 0, 2, 236, , None, None, ,  
02/09/2018 14:08, Wet, 32.5, , 34, 32, 75, 1, 0, , 0, 3, 284, , None, None, ,  
02/09/2018 14:01, Wet, 32.5, , 34, 32, 95, 1, 0, , 0, 3, 364, , None, None, ,  
02/09/2018 13:58, Wet, 32.5, , 34, 32, 95, 2, 0, , 0, 4, 392, , None, None, ,  
02/09/2018 13:48, Chemically Wet, 31.6, , 34, 32, 70, 1, 0, , 0, 3, 333, , None, None, ,  
02/09/2018 13:46, Wet, 32.9, , 34, 32, 90, 1, 0, , 0, 3, 307, , None, None, ,  
02/09/2018 13:38, Wet, 32.5, , 34, 31, 95, 2, 0, , 0, 6, 624, , None, None, ,  
02/09/2018 13:31, Wet, 32.5, , 34, 32, 95, 1, 0, , 0, 3, 275, , None, None, ,  
02/09/2018 13:28, Wet, 32.7, , 34, 32, 90, 1, 0, , 0, 3, 365, , None, None, ,  
02/09/2018 13:18, Wet, 32.7, , 34, 32, 65, 1, 0, , 0, 4, 386, , None, None, ,  
02/09/2018 13:16, Wet, 32.5, , 34, 32, 95, 1, 0, , 0, 3, 356, , None, None, ,  
02/09/2018 13:08, Wet, 32.4, , 34, 32, 60, 1, 0, , 0, 3, 285, , None, None, ,  
02/09/2018 13:01, Chemically Wet, 31.5, , 34, 32, 55, 1, , , 51, 3, 292, , None, None, ,  
02/09/2018 12:57, Chemically Wet, 30.7, , 34, 32, 80, 1, , , 79, 2, 249, , None, None, ,  
02/09/2018 12:47, Chemically Wet, 31.5, , 34, 32, 70, 1, , , 66, 2, 171, , None, None, ,  
02/09/2018 12:46, Chemically Wet, 31.5, , 34, 32, 95, 0, , , 71, 1, 127, , None, None, ,  
02/09/2018 12:37, Chemically Wet, 31.5, , 34, 31, 95, 2, , , 7, 5, 553, , None, None, ,  
02/09/2018 12:31, Chemically Wet, 31.5, , 34, 31, 95, 2, , , 15, 4, 423, , None, None, ,  
02/09/2018 12:27, Chemically Wet, 31.3, , 34, 32, 85, 1, , , 51, 3, 368, , None, None, ,  
02/09/2018 12:17, Chemically Wet, 30.9, , 34, 32, 95, 1, , , 73, 3, 300, , None, None, ,  
02/09/2018 12:16, Chemically Wet, 30.9, , 34, 32, 90, 1, , , 67, 3, 350, , None, None, ,  
02/09/2018 12:07, Chemically Wet, 30.2, , 34, 32, 95, 1, , , 80, 3, 363, , None, None, ,  
02/09/2018 12:01, Chemically Wet, 30, , 34, 32, 95, 1, , , 85, 3, 304, , None, None, ,  
02/09/2018 11:57, Ice Warning, 29.8, , 34, 32, 95, 1, , , 86, 3, 301, , None, None, ,  
02/09/2018 11:47, Chemically Wet, 30.4, , 34, 32, 95, 1, , , 80, 3, 306, , None, None, ,  
02/09/2018 11:46, Chemically Wet, 30.2, , 34, 32, 95, 1, , , 80, 3, 330, , None, None, ,  
02/09/2018 11:37, Chemically Wet, 30.2, , 34, 31, 95, 2, , , 74, 4, 444, , None, None, ,  
02/09/2018 11:31, Ice Warning, 30, , 34, 32, 95, 1, , , 90, 2, 190, , None, None, ,  
02/09/2018 11:27, Ice Warning, 30.4, , 34, 32, 95, 1, , , 92, 1, 130, , None, None, ,  
02/09/2018 11:17, Ice Warning, 30.6, , 34, 32, 55, 1, , , 90, 1, 139, , None, None, ,  
02/09/2018 11:16, Ice Warning, 30.4, , 34, 32, 55, 1, , , 91, 1, 140, , None, None, ,  
02/09/2018 11:07, Ice Warning, 30, , 34, 32, 40, 0, , , 95, 1, 106, , None, None, ,  
02/09/2018 11:01, Ice Warning, 29.3, , 34, 32, 25, 0, , , 97, 1, 71, , None, None, ,  
02/09/2018 10:57, Ice Warning, 29.3, , 34, 32, 35, 0, , , 97, 1, 87, , None, None, ,  
02/09/2018 10:47, Ice Warning, 29.1, , 34, 32, 20, 0, , , 99, 0, 42, , None, None, ,  
02/09/2018 10:46, Ice Warning, 29.1, , 34, 32, 20, 0, , , 99, 0, 40, , None, None, ,  
02/09/2018 10:37, Ice Warning, 28.9, , 34, 32, 35, 0, , , 99, 0, 27, , None, None, ,  
02/09/2018 10:31, Ice Warning, 28.6, , 34, 32, 45, 0, , , 100, 0, 16, , None, None, ,  
02/09/2018 10:27, Ice Warning, 28.8, , 34, 32, 25, 0, , , 99, 0, 18, , None, None, ,  
02/09/2018 10:17, Ice Warning, 28, , 34, 32, 20, 0, , , 100, 0, 19, , None, None, ,  
02/09/2018 10:16, Ice Warning, 28, , 34, 32, 20, 0, , , 100, 0, 19, , None, None, ,  
02/09/2018 10:07, Ice Warning, 28, , 34, 32, 40, 0, , , 99, 0, 23, , None, None, ,  
02/09/2018 10:01, Ice Warning, 28, , 34, 32, 40, 0, , , 99, 0, 23, , None, None, ,  
02/09/2018 09:57, Ice Warning, 28, , 34, 32, 25, 0, , , 99, 0, 22, , None, None, ,  
02/09/2018 09:47, Ice Warning, 27.9, , 34, 32, 15, 0, , , 100, 0, 19, , None, None, ,  
02/09/2018 09:46, Ice Warning, 27.9, , 34, 32, 15, 0, , , 100, 0, 19, , None, None, ,  
02/09/2018 09:37, Ice Warning, 27.5, , 34, 32, 15, 0, , , 99, 0, 48, , None, None, ,  
02/09/2018 09:31, Ice Warning, 27.7, , 34, 32, 55, 1, , , 97, 1, 149, , None, None, ,  
02/09/2018 09:26, Ice Warning, 27.7, , 34, 32, 55, 1, , , 96, 2, 184, , None, None, ,  
02/09/2018 09:16, Ice Warning, 27, , 34, 32, 50, 1, , , 96, 2, 190, , None, None, ,  
02/09/2018 09:16, Ice Warning, 27, , 34, 32, 50, 1, , , 96, 2, 190, , None, None, ,  
02/09/2018 09:06, Ice Warning, 27.7, , 34, 32, 70, 1, , , 96, 2, 192, , None, None, ,  
02/09/2018 09:01, Ice Warning, 27.1, , 34, 32, 70, 1, , , 96, 2, 188, , None, None, ,  
02/09/2018 08:56, Ice Warning, 26.8, , 34, 32, 50, 1, , , 96, 2, 185, , None, None, ,  
02/09/2018 08:46, Ice Warning, 26.8, , 34, 32, 65, 1, , , 97, 2, 183, , None, None, ,  
02/09/2018 08:46, Ice Warning, 26.8, , 34, 32, 65, 1, , , 97, 2, 183, , None, None, ,  
02/09/2018 08:36, Ice Warning, 26.6, , 34, 32, 65, 1, , , 97, 1, 158, , None, None, ,  
02/09/2018 08:31, Ice Warning, 26.4, , 34, 32, 70, 1, , , 97, 1, 151, , None, None, ,  
02/09/2018 08:26, Ice Warning, 26.6, , 34, 32, 90, 1, , , 97, 1, 149, , None, None, ,  
02/09/2018 08:16, Ice Warning, 26.6, , 34, 32, 80, 1, , , 96, 2, 201, , None, None, ,  
02/09/2018 08:16, Ice Warning, 26.6, , 34, 32, 80, 1, , , 96, 2, 201, , None, None, ,  
02/09/2018 08:06, Ice Warning, 27, , 34, 32, 95, 1, , , 96, 2, 203, , None, None, ,  
02/09/2018 08:01, Ice Warning, 26.6, , 34, 32, 95, 0, , , 99, 1, 67, , None, None, ,  
02/09/2018 07:56, Ice Warning, 26.4, , 34, 32, 85, 0, , , 100, 0, 24, , None, None, ,  
02/09/2018 07:46, Ice Warning, 26.4, , 34, 32, 95, 0, , , 100, 0, 23, , None, None, ,  
02/09/2018 07:46, Ice Warning, 26.4, , 34, 32, 95, 0, , , 100, 0, 23, , None, None, ,  
02/09/2018 07:36, Ice Warning, 25.9, , 34, 32, 95, 0, , , 100, 0, 11, , None, None, ,  
02/09/2018 07:31, Ice Warning, 25.7, , 34, 32, 95, 0, , , 100, 0, 9, , None, None, ,  
02/09/2018 07:26, Ice Warning, 25.9, , 34, 32, 45, 0, , , 100, 0, 5, , None, None, ,  
02/09/2018 07:16, Ice Warning, 27.1, , 34, 32, 10, 0, , , 100, 0, 4, , None, None, ,  
02/09/2018 07:16, Ice Warning, 27.1, , 34, 32, 10, 0, , , 100, 0, 4, , None, None, ,  
02/09/2018 07:06, Ice Warning, 27.5, , 34, 32, 10, 0, , , 100, 0, 4, , None, None, ,  
02/09/2018 07:01, Ice Warning, 27.3, , 34, 32, 20, 0, , , 100, 0, 4, , None, None, ,  
02/09/2018 06:56, Ice Warning, 27.7, , 34, 32, 20, 0, , , 100, 0, 4, , None, None, ,  
02/09/2018 06:46, Ice Warning, 27.7, , 34, 32, 25, 0, , , 100, 0, 5, , None, None, ,  
02/09/2018 06:45, Ice Warning, 27.7, , 34, 32, 25, 0, , , 100, 0, 5, , None, None, ,  
02/09/2018 06:35, Ice Warning, 27.5, , 34, 32, 25, 0, , , 100, 0, 5, , None, None, ,  
02/09/2018 06:31, Ice Warning, 27.7, , 34, 32, 35, 0, , , 100, 0, 5, , None, None, ,  
02/09/2018 06:25, Ice Warning, 27.7, , 34, 32, 40, 0, , , 100, 0, 5, , None, None, ,  
02/09/2018 06:16, Ice Warning, 27.9, , 34, 32, 50, 0, , , 100, 0, 5, , None, None, ,  
02/09/2018 06:15, Ice Warning, 27.9, , 34, 32, 50, 0, , , 100, 0, 5, , None, None, ,  
02/09/2018 06:05, Ice Warning, 28, , 34, 32, 50, 0, , , 100, 0, 5, , None, None, ,  
02/09/2018 06:01, Ice Warning, 28, , 34, 32, 75, 0, , , 100, 0, 6, , None, None, ,  
02/09/2018 05:55, Ice Warning, 28.4, , 34, 32, 85, 0, , , 100, 0, 5, , None, None, ,  
02/09/2018 05:46, Ice Warning, 28.4, , 34, 32, 45, 0, , , 100, 0, 16, , None, None, ,  
02/09/2018 05:45, Ice Warning, 28.4, , 34, 32, 45, 0, , , 100, 0, 16, , None, None, ,  
02/09/2018 05:35, Ice Warning, 28.2, , 34, 32, 80, 1, , , 92, 3, 292, , None, None, ,  
02/09/2018 05:31, Ice Warning, 28.2, , 34, 32, 40, 0, , , 97, 1, 97, , None, None, ,  
02/09/2018 05:25, Ice Warning, 28.2, , 34, 32, 30, 0, , , 98, 1, 88, , None, None, ,  
02/09/2018 05:16, Ice Warning, 28, , 34, 32, 25, 0, , , 98, 1, 61, , None, None, ,  
02/09/2018 05:15, Ice Warning, 28, , 34, 32, 25, 0, , , 98, 1, 61, , None, None, ,  
02/09/2018 05:05, Ice Warning, 28, , 35, 32, 20, 0, , , 100, 0, 17, , None, None, ,  
02/09/2018 05:01, Ice Warning, 27.7, , 35, 32, 15, 0, , , 100, 0, 14, , None, None, ,  
02/09/2018 04:55, Ice Warning, 26.8, , 35, 32, 15, 0, , , 100, 0, 14, , None, None, ,  
02/09/2018 04:46, Ice Warning, 28, , 34, 32, 5, 0, , , 100, 0, 0, , None, None, ,  
02/09/2018 04:45, Ice Warning, 28, , 34, 32, 5, 0, , , 100, 0, 0, , None, None, ,  
02/09/2018 04:35, Ice Warning, 28.2, , 35, 32, 5, 0, , , 100, 0, 0, , None, None, ,  
02/09/2018 04:31, Ice Warning, 28.4, , 34, 32, 5, 0, , , 100, 0, 0, , None, None, ,  
02/09/2018 04:25, Ice Warning, 28.6, , 34, 32, 5, 0, , , 100, 0, 0, , None, None, ,  
02/09/2018 04:16, Ice Warning, 28.8, , 34, 32, 5, 0, , , 100, 0, 0, , None, None, ,  
02/09/2018 04:15, Ice Warning, 28.8, , 34, 32, 5, 0, , , 100, 0, 0, , None, None, ,  
02/09/2018 04:05, Ice Warning, 29.7, , 34, 32, 5, 0, , , 100, 0, 0, , None, None, ,  
02/09/2018 04:01, Ice Warning, 30, , 35, 32, 5, 0, , , 100, 0, 0, , None, None, ,  
02/09/2018 03:55, Ice Warning, 30.6, , 34, 32, 5, 0, , , 100, 0, 0, , None, None, ,  
02/09/2018 03:46, Ice Warning, 30.7, , 34, 32, 5, 0, , , 100, 0, 0, , None, None, ,  
02/09/2018 03:45, Ice Warning, 30.7, , 34, 32, 5, 0, , , 100, 0, 0, , None, None, ,  
02/09/2018 03:35, Ice Warning, 31.5, , 35, 32, 5, 0, , , 100, 0, 0, , None, None, ,  
02/09/2018 03:31, Ice Warning, 31.5, , 35, 32, 5, 0, , , 100, 0, 2, , None, None, ,  
02/09/2018 03:25, Ice Warning, 31.6, , 35, 32, 5, 0, , , 99, 0, 2, , None, None, ,  
02/09/2018 03:16, Ice Warning, 31.8, , 34, 32, 5, 0, , , 98, 0, 3, , None, None, ,  
02/09/2018 03:15, Ice Warning, 31.8, , 35, 32, 5, 0, , , 98, 0, 4, , None, None, ,  
02/09/2018 03:04, Ice Warning, 31.6, , 35, 32, 5, 0, , , 98, 0, 5, , None, None, ,  
02/09/2018 03:01, Ice Warning, 31.6, , 35, 32, 5, 0, , , 99, 0, 4, , None, None, ,  
02/09/2018 02:54, Ice Warning, 31.6, , 35, 32, 5, 0, , , 98, 0, 6, , None, None, ,  
02/09/2018 02:46, Ice Warning, 31.6, , 35, 32, 5, 0, , , 99, 0, 3, , None, None, ,  
02/09/2018 02:44, Ice Warning, 31.6, , 35, 32, 5, 0, , , 99, 0, 3, , None, None, ,  
02/09/2018 02:34, Ice Warning, 31.6, , 35, 32, 5, 0, , , 99, 0, 1, , None, None, ,  
02/09/2018 02:31, Ice Warning, 31.6, , 35, 32, 5, 0, , , 100, 0, 1, , None, None, ,  
02/09/2018 02:24, Ice Warning, 31.6, , 35, 32, 15, 0, , , 100, 0, 1, , None, None, ,  
02/09/2018 02:16, Ice Warning, 31.6, , 35, 32, 5, 0, , , 100, 0, 1, , None, None, ,  
02/09/2018 02:14, Ice Warning, 31.6, , 35, 32, 5, 0, , , 100, 0, 1, , None, None, ,  
02/09/2018 02:04, Ice Warning, 31.8, , 35, 32, 5, 0, , , 100, 0, 0, , None, None, ,  
02/09/2018 02:01, Ice Warning, 31.8, , 34, 32, 5, 0, , , 100, 0, 0, , None, None, ,  
02/09/2018 01:54, Chemically Wet, 32, , 35, 32, 5, 0, 0, , 0, 0, 1, , None, None, ,  
02/09/2018 01:46, Wet, 32.5, , 35, 32, 5, 0, 0, , 0, 0, 3, , None, None, ,  
02/09/2018 01:44, Wet, 33.6, , 35, 32, 5, 0, 0, , 0, 0, 3, , None, None, ,  
02/09/2018 01:34, Wet, 34.2, , 35, 32, 5, 0, 0, , 0, 0, 3, , None, None, ,  
02/09/2018 01:31, Wet, 34.3, , 35, 32, 5, 0, 0, , 0, 0, 3, , None, None, ,  
02/09/2018 01:24, Wet, 34.5, , 35, 32, 5, 0, 0, , 0, 0, 3, , None, None, ,  
02/09/2018 01:16, Wet, 34.5, , 35, 32, 5, 0, 0, , 0, 0, 3, , None, None, ,  
02/09/2018 01:14, Wet, 34.5, , 35, 32, 5, 0, 0, , 0, 0, 3, , None, None, ,  
02/09/2018 01:04, Wet, 35.2, , 35, 32, 5, 0, 0, , 0, 0, 2, , Yes, , ,  
02/09/2018 01:01, Wet, 35.1, , 35, 32, 5, 0, 0, , 0, 0, 2, , Yes, , ,  
02/09/2018 00:54, Wet, 35.8, , 35, 32, 5, 0, 0, , 0, 0, 2, , Yes, , ,  
02/09/2018 00:46, Wet, 36.1, , 35, 32, 5, 0, 0, , 0, 0, 2, , Yes, , ,  
02/09/2018 00:44, Wet, 36.5, , 35, 32, 5, 0, 0, , 0, 0, 2, , Yes, , ,  
02/09/2018 00:34, Wet, 38.1, , 35, 32, 5, 0, 0, , 0, 0, 3, , Yes, , ,  
02/09/2018 00:31, Wet, 38.1, , 35, 32, 5, 0, 0, , 0, 0, 4, , Yes, , ,  
02/09/2018 00:24, Wet, 38.3, , 35, 32, 5, 0, 0, , 0, 0, 4, , Yes, , ,  
02/09/2018 00:16, Wet, 38.1, , 35, 32, 5, 0, 0, , 0, 0, 4, , Yes, , ,  
02/09/2018 00:14, Wet, 38.1, , 35, 32, 5, 0, 0, , 0, 0, 4, , Yes, , ,  
02/09/2018 00:04, Wet, 37.9, , 35, 32, 5, 0, 0, , 0, 0, 3, , Yes, , ,  
02/09/2018 00:01, Wet, 37.9, , 35, 32, 5, 0, 0, , 0, 0, 3, , Yes, , ,  
02/08/2018 23:54, Wet, 38.1, , 35, 32, 5, 0, 0, , 0, 0, 3, , Yes, , ,  
02/08/2018 23:46, Wet, 38.3, , 35, 32, 5, 0, 0, , 0, 0, 3, , Yes, , ,  
02/08/2018 23:43, Wet, 38.7, , 35, 32, 5, 0, 0, , 0, 0, 3, , Yes, , ,  
02/08/2018 23:33, Wet, 38.7, , 35, 32, 5, 0, 0, , 0, 0, 11, , Yes, , ,  
02/08/2018 23:31, Wet, 38.8, , 34, 32, 5, 0, 0, , 0, 0, 16, , Yes, , ,  
02/08/2018 23:23, Wet, 39, , 35, 32, 5, 0, 0, , 0, 0, 17, , Yes, , ,  
02/08/2018 23:16, Wet, 39.6, , 35, 32, 5, 0, 0, , 0, 0, 12, , Yes, , ,  
02/08/2018 23:13, Wet, 39.7, , 35, 32, 5, 0, 0, , 0, 0, 8, , Yes, , ,  
02/08/2018 23:03, Dry, 39.6, , 35, , , , , , , 0, 1, , Yes, , ,  
02/08/2018 23:01, Dry, 39.9, , 35, , , , , , , 0, 0, , None, None, ,  
02/08/2018 22:53, Dry, 39.6, , 35, , , , , , , 0, 0, , Yes, , ,  
02/08/2018 22:46, Dry, 39.6, , 35, , , , , , , 0, 1, , Yes, , ,  
02/08/2018 22:43, Dry, 39.4, , 35, , , , , , , 0, 1, , Yes, , ,  
02/08/2018 22:33, Wet, 39.6, , 35, 32, 5, 0, 0, , 0, 0, 1, , Yes, , ,  
02/08/2018 22:31, Wet, 39.7, , 35, 32, 5, 0, 0, , 0, 0, 1, , Yes, , ,  
02/08/2018 22:23, Wet, 39.9, , 35, 32, 5, 0, 0, , 0, 0, 1, , Yes, , ,  
02/08/2018 22:16, Dry, 40.5, , 35, , , , , , , 0, 0, , Yes, , ,  
02/08/2018 22:13, Dry, 40.5, , 35, , , , , , , 0, 0, , Yes, , ,  
02/08/2018 22:03, Dry, 41.2, , 35, , , , , , , 0, 0, , None, None, ,  
02/08/2018 22:01, Dry, 41.2, , 35, , , , , , , 0, 0, , Yes, , ,  
02/08/2018 21:53, Dry, 40.8, , 35, , , , , , , 0, 0, , None, None, ,  
02/08/2018 21:46, Dry, 41.2, , 35, , , , , , , 0, 0, , None, None, ,  
02/08/2018 21:43, Dry, 41.2, , 34, , , , , , , 0, 0, , None, None, ,  
02/08/2018 21:33, Dry, 41, , 34, , , , , , , 0, 0, , None, None, ,  
02/08/2018 21:31, Dry, 41, , 34, , , , , , , 0, 0, , None, None, ,  
02/08/2018 21:23, Dry, 41.5, , 34, , , , , , , 0, 0, , None, None, ,  
02/08/2018 21:16, Dry, 41.9, , 34, , , , , , , 0, 0, , None, None, ,  
02/08/2018 21:13, Dry, 41.5, , 34, , , , , , , 0, 0, , None, None, ,  
02/08/2018 21:03, Dry, 42.3, , 34, , , , , , , 0, 0, , None, None, ,  
02/08/2018 21:01, Dry, 42.1, , 34, , , , , , , 0, 0, , None, None, ,  
02/08/2018 20:53, Dry, 42.1, , 35, , , , , , , 0, 0, , None, None, ,  
02/08/2018 20:46, Dry, 42.1, , 34, , , , , , , 0, 0, , None, None, ,  
02/08/2018 20:43, Dry, 42.1, , 34, , , , , , , 0, 0, , None, None, ,  
02/08/2018 20:33, Dry, 42.3, , 34, , , , , , , 0, 0, , None, None, ,  
02/08/2018 20:31, Dry, 42.4, , 34, , , , , , , 0, 0, , None, None, ,  
02/08/2018 20:23, Dry, 42.6, , 34, , , , , , , 0, 0, , None, None, ,  
02/08/2018 20:16, Dry, 42.4, , 34, , , , , , , 0, 0, , None, None, ,  
02/08/2018 20:12, Dry, 42.4, , 34, , , , , , , 0, 0, , None, None, ,  
02/08/2018 20:02, Dry, 42.6, , 34, , , , , , , 0, 0, , None, None, ,  
02/08/2018 20:01, Dry, 42.6, , 34, , , , , , , 0, 0, , None, None, ,  
02/08/2018 19:52, Dry, 42.6, , 34, , , , , , , 0, 0, , None, None, ,  
02/08/2018 19:46, Dry, 42.6, , 34, , , , , , , 0, 0, , None, None, ,  
02/08/2018 19:42, Dry, 43.2, , 34, , , , , , , 0, 0, , None, None, ,  
Change End Date:

Copyright © 1998-2015 Vaisala, Inc.
All Rights Reserved
Send comments about the data to:
SCAN Web ® is a registered trademark of Vaisala, Inc.
SCAN Web Version 6.0